Airfield :
LOGIN :

Register | Disclaimer

   EN    FR    IT 

 










Legend :    VFR   Marginal VFR   IFR   Intensive IFR   Very Intensive IFR
Visi :
Ceiling :
>= 8 km
>= 3000ft
5 to 8 km
1000 to 3000 ft
1500m to 5 km
500 to 1000 ft
800 to 1500m
200 to 500 ft
< 800m
< 200 ft
Symbols :   Thunderstorms  Fog  Heavy snow  Heavy precipitations  Wind > 20 kt
SIGMETs :     Misc.  Thunderstorms  Icing  Turbulence  Mountain Waves  Volcanic Ashes






- Airport Elevation : 1789 ft
- IATA code : PRN


BKPR - Pristina

CURRENT METAR :
  • 211900Z VRB03KT 0300 R17/0500 FG VV003 07/05 Q1016 TEMPO 0400 RMK 17010095

EXPIRED METARs :
  • 211830Z 01004KT 0250 R17/0400 FG VV003 07/05 Q1015 TEMPO 0400 RMK 17010095
  • 211800Z VRB02KT 0100 R17/0300 VV003 07/05 Q1015 TEMPO 0300 RMK 17010095
  • 211730Z VRB01KT 0200 R17/0350VP1500 FG VV002 07/05 Q1015 TEMPO 0600 RMK 17010095
  • 211700Z VRB02KT 4000 BR NSC 06/04 Q1015 NOSIG RMK 17010095
  • 211630Z VRB02KT 4000 BR NSC 06/04 Q1015 NOSIG RMK 17010095

TAF TAF BKPR
Valid from the 21 at 18:00 until the 22 at 18:00 UTC


211730Z 2118/2218 VRB03KT 0150 FG BKN002
PROB30
TEMPO 2118/2202 0800 BKN006
TEMPO 2202/2208 1000 -DZ BR BKN010
BECMG 2208/2210 2000 BR
BECMG 2210/2212 9999 NSW SCT040



MET'MAP, your aeronautical weather chart ! - Copyright ORBIFLY December 2007 - Disclaimer

ORBIFLY MET'MAP TEAM :

Programming & Development : Alexandra Zaïnal
Concept & Development : Baudouin d'Aumeries
Co-Development & Prog : Marc-Olivier Méhu
Technical & hardware support : Manuel Goepfert

Contact : metmap@orbifly.com




SOURCES & CREDITS :

   NOAA